sensor_id;sensor_type;location;lat;lon;timestamp;temperature;humidity
2300;DHT22;1158;48.750;9.078;2022-10-30T00:00:43;12.30;99.90
2300;DHT22;1158;48.750;9.078;2022-10-30T00:03:11;12.30;99.90
2300;DHT22;1158;48.750;9.078;2022-10-30T00:05:40;12.30;99.90
2300;DHT22;1158;48.750;9.078;2022-10-30T00:08:09;12.30;99.90
2300;DHT22;1158;48.750;9.078;2022-10-30T00:10:36;12.30;99.90
2300;DHT22;1158;48.750;9.078;2022-10-30T00:13:03;12.30;99.90
2300;DHT22;1158;48.750;9.078;2022-10-30T00:15:30;12.30;99.90
2300;DHT22;1158;48.750;9.078;2022-10-30T00:17:57;12.30;99.90
2300;DHT22;1158;48.750;9.078;2022-10-30T00:20:24;12.30;99.90
2300;DHT22;1158;48.750;9.078;2022-10-30T00:22:51;12.30;99.90
2300;DHT22;1158;48.750;9.078;2022-10-30T00:25:19;12.20;99.90
2300;DHT22;1158;48.750;9.078;2022-10-30T00:27:45;12.20;99.90
2300;DHT22;1158;48.750;9.078;2022-10-30T00:30:12;12.20;99.90
2300;DHT22;1158;48.750;9.078;2022-10-30T00:32:40;12.20;99.90
2300;DHT22;1158;48.750;9.078;2022-10-30T00:35:08;12.20;99.90
2300;DHT22;1158;48.750;9.078;2022-10-30T00:37:34;12.20;99.90
2300;DHT22;1158;48.750;9.078;2022-10-30T00:40:01;12.20;99.90
2300;DHT22;1158;48.750;9.078;2022-10-30T00:42:30;12.20;99.90
2300;DHT22;1158;48.750;9.078;2022-10-30T00:44:57;12.20;99.90
2300;DHT22;1158;48.750;9.078;2022-10-30T00:47:27;12.20;99.90
2300;DHT22;1158;48.750;9.078;2022-10-30T00:49:58;12.10;99.90
2300;DHT22;1158;48.750;9.078;2022-10-30T00:52:29;12.10;99.90
2300;DHT22;1158;48.750;9.078;2022-10-30T00:54:56;12.10;99.90
2300;DHT22;1158;48.750;9.078;2022-10-30T00:57:24;12.10;99.90
2300;DHT22;1158;48.750;9.078;2022-10-30T00:59:53;12.10;99.90
2300;DHT22;1158;48.750;9.078;2022-10-30T01:02:20;12.10;99.90
2300;DHT22;1158;48.750;9.078;2022-10-30T01:04:49;12.10;99.90
2300;DHT22;1158;48.750;9.078;2022-10-30T01:07:17;12.10;99.90
2300;DHT22;1158;48.750;9.078;2022-10-30T01:09:45;12.10;99.90
2300;DHT22;1158;48.750;9.078;2022-10-30T01:12:12;12.00;99.90
2300;DHT22;1158;48.750;9.078;2022-10-30T01:14:42;12.00;99.90
2300;DHT22;1158;48.750;9.078;2022-10-30T01:17:26;12.00;99.90
2300;DHT22;1158;48.750;9.078;2022-10-30T01:20:10;12.00;99.90
2300;DHT22;1158;48.750;9.078;2022-10-30T01:22:50;12.00;99.90
2300;DHT22;1158;48.750;9.078;2022-10-30T01:25:33;11.90;99.90
2300;DHT22;1158;48.750;9.078;2022-10-30T01:28:08;11.90;99.90
2300;DHT22;1158;48.750;9.078;2022-10-30T01:30:51;11.90;99.90
2300;DHT22;1158;48.750;9.078;2022-10-30T01:33:30;11.90;99.90
2300;DHT22;1158;48.750;9.078;2022-10-30T01:36:04;11.90;99.90
2300;DHT22;1158;48.750;9.078;2022-10-30T01:38:35;11.90;99.90
2300;DHT22;1158;48.750;9.078;2022-10-30T01:41:05;11.90;99.90
2300;DHT22;1158;48.750;9.078;2022-10-30T01:43:32;11.90;99.90
2300;DHT22;1158;48.750;9.078;2022-10-30T01:46:09;11.90;99.90
2300;DHT22;1158;48.750;9.078;2022-10-30T01:49:01;11.90;99.90
2300;DHT22;1158;48.750;9.078;2022-10-30T01:51:42;11.80;99.90
2300;DHT22;1158;48.750;9.078;2022-10-30T01:54:20;11.80;99.90
2300;DHT22;1158;48.750;9.078;2022-10-30T01:56:58;11.80;99.90
2300;DHT22;1158;48.750;9.078;2022-10-30T01:59:31;11.70;99.90
2300;DHT22;1158;48.750;9.078;2022-10-30T02:02:01;11.70;99.90
2300;DHT22;1158;48.750;9.078;2022-10-30T02:04:30;11.70;99.90
2300;DHT22;1158;48.750;9.078;2022-10-30T02:06:57;11.70;99.90
2300;DHT22;1158;48.750;9.078;2022-10-30T02:09:24;11.70;99.90
2300;DHT22;1158;48.750;9.078;2022-10-30T02:11:52;11.70;99.90
2300;DHT22;1158;48.750;9.078;2022-10-30T02:14:22;11.70;99.90
2300;DHT22;1158;48.750;9.078;2022-10-30T02:16:52;11.70;99.90
2300;DHT22;1158;48.750;9.078;2022-10-30T02:19:19;11.70;99.90
2300;DHT22;1158;48.750;9.078;2022-10-30T02:21:48;11.70;99.90
2300;DHT22;1158;48.750;9.078;2022-10-30T02:24:14;11.70;99.90
2300;DHT22;1158;48.750;9.078;2022-10-30T02:26:41;11.70;99.90
2300;DHT22;1158;48.750;9.078;2022-10-30T02:29:08;11.70;99.90
2300;DHT22;1158;48.750;9.078;2022-10-30T02:31:35;11.70;99.90
2300;DHT22;1158;48.750;9.078;2022-10-30T02:34:02;11.70;99.90
2300;DHT22;1158;48.750;9.078;2022-10-30T02:36:29;11.70;99.90
2300;DHT22;1158;48.750;9.078;2022-10-30T02:38:57;11.60;99.90
2300;DHT22;1158;48.750;9.078;2022-10-30T02:41:24;11.60;99.90
2300;DHT22;1158;48.750;9.078;2022-10-30T02:43:51;11.60;99.90
2300;DHT22;1158;48.750;9.078;2022-10-30T02:46:19;11.60;99.90
2300;DHT22;1158;48.750;9.078;2022-10-30T02:48:45;11.50;99.90
2300;DHT22;1158;48.750;9.078;2022-10-30T02:51:12;11.50;99.90
2300;DHT22;1158;48.750;9.078;2022-10-30T02:53:39;11.50;99.90
2300;DHT22;1158;48.750;9.078;2022-10-30T02:56:09;11.50;99.90
2300;DHT22;1158;48.750;9.078;2022-10-30T02:58:37;11.50;99.90
2300;DHT22;1158;48.750;9.078;2022-10-30T03:01:05;11.50;99.90
2300;DHT22;1158;48.750;9.078;2022-10-30T03:03:32;11.50;99.90
2300;DHT22;1158;48.750;9.078;2022-10-30T03:05:59;11.40;99.90
2300;DHT22;1158;48.750;9.078;2022-10-30T03:08:29;11.40;99.90
2300;DHT22;1158;48.750;9.078;2022-10-30T03:11:00;11.40;99.90
2300;DHT22;1158;48.750;9.078;2022-10-30T03:13:29;11.30;99.90
2300;DHT22;1158;48.750;9.078;2022-10-30T03:16:01;11.20;99.90
2300;DHT22;1158;48.750;9.078;2022-10-30T03:18:28;11.20;99.90
2300;DHT22;1158;48.750;9.078;2022-10-30T03:20:56;11.20;99.90
2300;DHT22;1158;48.750;9.078;2022-10-30T03:23:23;11.10;99.90
2300;DHT22;1158;48.750;9.078;2022-10-30T03:25:51;11.10;99.90
2300;DHT22;1158;48.750;9.078;2022-10-30T03:28:19;11.00;99.90
2300;DHT22;1158;48.750;9.078;2022-10-30T03:30:48;11.00;99.90
2300;DHT22;1158;48.750;9.078;2022-10-30T03:33:15;11.00;99.90
2300;DHT22;1158;48.750;9.078;2022-10-30T03:35:42;10.90;99.90
2300;DHT22;1158;48.750;9.078;2022-10-30T03:38:10;10.90;99.90
2300;DHT22;1158;48.750;9.078;2022-10-30T03:40:37;10.80;99.90
2300;DHT22;1158;48.750;9.078;2022-10-30T03:43:04;10.90;99.90
2300;DHT22;1158;48.750;9.078;2022-10-30T03:45:31;10.90;99.90
2300;DHT22;1158;48.750;9.078;2022-10-30T03:47:59;10.80;99.90
2300;DHT22;1158;48.750;9.078;2022-10-30T03:50:26;10.70;99.90
2300;DHT22;1158;48.750;9.078;2022-10-30T03:52:53;10.70;99.90
2300;DHT22;1158;48.750;9.078;2022-10-30T03:55:20;10.60;99.90
2300;DHT22;1158;48.750;9.078;2022-10-30T03:57:47;10.60;99.90
2300;DHT22;1158;48.750;9.078;2022-10-30T04:00:15;10.60;99.90
2300;DHT22;1158;48.750;9.078;2022-10-30T04:02:45;10.50;99.90
2300;DHT22;1158;48.750;9.078;2022-10-30T04:05:14;10.40;99.90
2300;DHT22;1158;48.750;9.078;2022-10-30T04:07:41;10.40;99.90
2300;DHT22;1158;48.750;9.078;2022-10-30T04:10:08;10.30;99.90
2300;DHT22;1158;48.750;9.078;2022-10-30T04:12:35;10.30;99.90
2300;DHT22;1158;48.750;9.078;2022-10-30T04:15:03;10.30;99.90
2300;DHT22;1158;48.750;9.078;2022-10-30T04:17:30;10.20;99.90
2300;DHT22;1158;48.750;9.078;2022-10-30T04:19:57;10.10;99.90
2300;DHT22;1158;48.750;9.078;2022-10-30T04:22:25;10.10;99.90
2300;DHT22;1158;48.750;9.078;2022-10-30T04:24:52;10.10;99.90
2300;DHT22;1158;48.750;9.078;2022-10-30T04:27:19;10.10;99.90
2300;DHT22;1158;48.750;9.078;2022-10-30T04:29:46;10.00;99.90
2300;DHT22;1158;48.750;9.078;2022-10-30T04:32:13;10.00;99.90
2300;DHT22;1158;48.750;9.078;2022-10-30T04:34:39;10.00;99.90
2300;DHT22;1158;48.750;9.078;2022-10-30T04:37:06;9.90;99.90
2300;DHT22;1158;48.750;9.078;2022-10-30T04:39:34;9.90;99.90
2300;DHT22;1158;48.750;9.078;2022-10-30T04:42:01;9.80;99.90
2300;DHT22;1158;48.750;9.078;2022-10-30T04:44:28;9.80;99.90
2300;DHT22;1158;48.750;9.078;2022-10-30T04:46:55;9.70;99.90
2300;DHT22;1158;48.750;9.078;2022-10-30T04:49:21;9.70;99.90
2300;DHT22;1158;48.750;9.078;2022-10-30T04:51:48;9.60;99.90
2300;DHT22;1158;48.750;9.078;2022-10-30T04:54:15;9.70;99.90
2300;DHT22;1158;48.750;9.078;2022-10-30T04:56:43;9.70;99.90
2300;DHT22;1158;48.750;9.078;2022-10-30T04:59:09;9.70;99.90
2300;DHT22;1158;48.750;9.078;2022-10-30T05:01:36;9.70;99.90
2300;DHT22;1158;48.750;9.078;2022-10-30T05:04:03;9.60;99.90
2300;DHT22;1158;48.750;9.078;2022-10-30T05:06:30;9.70;99.90
2300;DHT22;1158;48.750;9.078;2022-10-30T05:08:57;9.60;99.90
2300;DHT22;1158;48.750;9.078;2022-10-30T05:11:24;9.60;99.90
2300;DHT22;1158;48.750;9.078;2022-10-30T05:13:53;9.60;99.90
2300;DHT22;1158;48.750;9.078;2022-10-30T05:16:19;9.50;99.90
2300;DHT22;1158;48.750;9.078;2022-10-30T05:18:46;9.50;99.90
2300;DHT22;1158;48.750;9.078;2022-10-30T05:21:13;9.40;99.90
2300;DHT22;1158;48.750;9.078;2022-10-30T05:23:39;9.40;99.90
2300;DHT22;1158;48.750;9.078;2022-10-30T05:26:06;9.40;99.90
2300;DHT22;1158;48.750;9.078;2022-10-30T05:28:33;9.40;99.90
2300;DHT22;1158;48.750;9.078;2022-10-30T05:31:01;9.40;99.90
2300;DHT22;1158;48.750;9.078;2022-10-30T05:33:27;9.30;99.90
2300;DHT22;1158;48.750;9.078;2022-10-30T05:35:54;9.30;99.90
2300;DHT22;1158;48.750;9.078;2022-10-30T05:38:21;9.30;99.90
2300;DHT22;1158;48.750;9.078;2022-10-30T05:40:47;9.20;99.90
2300;DHT22;1158;48.750;9.078;2022-10-30T05:43:14;9.20;99.90
2300;DHT22;1158;48.750;9.078;2022-10-30T05:45:41;9.20;99.90
2300;DHT22;1158;48.750;9.078;2022-10-30T05:48:09;9.10;99.90
2300;DHT22;1158;48.750;9.078;2022-10-30T05:50:36;9.00;99.90
2300;DHT22;1158;48.750;9.078;2022-10-30T05:53:03;9.00;99.90
2300;DHT22;1158;48.750;9.078;2022-10-30T05:55:30;9.00;99.90
2300;DHT22;1158;48.750;9.078;2022-10-30T05:57:58;9.00;99.90
2300;DHT22;1158;48.750;9.078;2022-10-30T06:00:26;8.90;99.90
2300;DHT22;1158;48.750;9.078;2022-10-30T06:02:58;8.90;99.90
2300;DHT22;1158;48.750;9.078;2022-10-30T06:05:26;8.90;99.90
2300;DHT22;1158;48.750;9.078;2022-10-30T06:07:53;9.00;99.90
2300;DHT22;1158;48.750;9.078;2022-10-30T06:10:21;9.00;99.90
2300;DHT22;1158;48.750;9.078;2022-10-30T06:12:51;9.00;99.90
2300;DHT22;1158;48.750;9.078;2022-10-30T06:15:18;9.00;99.90
2300;DHT22;1158;48.750;9.078;2022-10-30T06:17:45;8.90;99.90
2300;DHT22;1158;48.750;9.078;2022-10-30T06:20:12;8.90;99.90
2300;DHT22;1158;48.750;9.078;2022-10-30T06:22:40;8.90;99.90
2300;DHT22;1158;48.750;9.078;2022-10-30T06:25:07;8.90;99.90
2300;DHT22;1158;48.750;9.078;2022-10-30T06:27:34;9.00;99.90
2300;DHT22;1158;48.750;9.078;2022-10-30T06:30:01;9.10;99.90
2300;DHT22;1158;48.750;9.078;2022-10-30T06:32:28;9.10;99.90
2300;DHT22;1158;48.750;9.078;2022-10-30T06:34:54;9.20;99.90
2300;DHT22;1158;48.750;9.078;2022-10-30T06:37:21;9.30;99.90
2300;DHT22;1158;48.750;9.078;2022-10-30T06:39:49;9.40;99.90
2300;DHT22;1158;48.750;9.078;2022-10-30T06:42:16;9.50;99.90
2300;DHT22;1158;48.750;9.078;2022-10-30T06:44:42;9.60;99.90
2300;DHT22;1158;48.750;9.078;2022-10-30T06:47:09;9.90;99.90
2300;DHT22;1158;48.750;9.078;2022-10-30T06:49:36;10.30;99.90
2300;DHT22;1158;48.750;9.078;2022-10-30T06:52:03;10.70;99.90
2300;DHT22;1158;48.750;9.078;2022-10-30T06:54:29;10.80;99.90
2300;DHT22;1158;48.750;9.078;2022-10-30T06:56:57;11.10;99.90
2300;DHT22;1158;48.750;9.078;2022-10-30T06:59:25;11.90;99.90
2300;DHT22;1158;48.750;9.078;2022-10-30T07:01:51;12.30;99.90
2300;DHT22;1158;48.750;9.078;2022-10-30T07:04:18;12.80;99.90
2300;DHT22;1158;48.750;9.078;2022-10-30T07:06:45;13.30;99.90
2300;DHT22;1158;48.750;9.078;2022-10-30T07:09:11;13.40;99.90
2300;DHT22;1158;48.750;9.078;2022-10-30T07:11:38;13.70;99.90
2300;DHT22;1158;48.750;9.078;2022-10-30T07:14:11;13.20;99.90
2300;DHT22;1158;48.750;9.078;2022-10-30T07:16:38;13.30;99.90
2300;DHT22;1158;48.750;9.078;2022-10-30T07:19:04;13.20;99.90
2300;DHT22;1158;48.750;9.078;2022-10-30T07:21:31;12.90;99.90
2300;DHT22;1158;48.750;9.078;2022-10-30T07:23:58;12.80;99.90
2300;DHT22;1158;48.750;9.078;2022-10-30T07:26:24;12.50;99.90
2300;DHT22;1158;48.750;9.078;2022-10-30T07:28:51;12.70;99.90
2300;DHT22;1158;48.750;9.078;2022-10-30T07:31:19;12.70;99.90
2300;DHT22;1158;48.750;9.078;2022-10-30T07:33:46;13.10;99.90
2300;DHT22;1158;48.750;9.078;2022-10-30T07:36:12;13.50;99.90
2300;DHT22;1158;48.750;9.078;2022-10-30T07:38:40;14.00;99.90
2300;DHT22;1158;48.750;9.078;2022-10-30T07:41:07;14.60;99.90
2300;DHT22;1158;48.750;9.078;2022-10-30T07:43:33;15.40;99.90
2300;DHT22;1158;48.750;9.078;2022-10-30T07:46:00;16.50;99.90
2300;DHT22;1158;48.750;9.078;2022-10-30T07:48:28;17.40;99.90
2300;DHT22;1158;48.750;9.078;2022-10-30T07:50:55;18.30;99.90
2300;DHT22;1158;48.750;9.078;2022-10-30T07:53:21;19.50;99.90
2300;DHT22;1158;48.750;9.078;2022-10-30T07:55:48;20.20;99.90
2300;DHT22;1158;48.750;9.078;2022-10-30T07:58:15;21.00;99.90
2300;DHT22;1158;48.750;9.078;2022-10-30T08:00:42;21.40;99.90
2300;DHT22;1158;48.750;9.078;2022-10-30T08:03:09;21.70;99.90
2300;DHT22;1158;48.750;9.078;2022-10-30T08:05:37;22.60;99.90
2300;DHT22;1158;48.750;9.078;2022-10-30T08:08:04;23.30;99.90
2300;DHT22;1158;48.750;9.078;2022-10-30T08:10:31;23.80;99.90
2300;DHT22;1158;48.750;9.078;2022-10-30T08:12:58;23.70;99.90
2300;DHT22;1158;48.750;9.078;2022-10-30T08:15:25;24.60;99.90
2300;DHT22;1158;48.750;9.078;2022-10-30T08:17:52;24.90;99.90
2300;DHT22;1158;48.750;9.078;2022-10-30T08:20:20;25.10;99.90
2300;DHT22;1158;48.750;9.078;2022-10-30T08:22:50;25.20;99.90
2300;DHT22;1158;48.750;9.078;2022-10-30T08:25:18;25.30;99.90
2300;DHT22;1158;48.750;9.078;2022-10-30T08:27:50;25.30;99.90
2300;DHT22;1158;48.750;9.078;2022-10-30T08:30:17;25.10;99.90
2300;DHT22;1158;48.750;9.078;2022-10-30T08:32:44;25.30;99.90
2300;DHT22;1158;48.750;9.078;2022-10-30T08:35:10;25.60;99.90
2300;DHT22;1158;48.750;9.078;2022-10-30T08:37:37;25.40;99.90
2300;DHT22;1158;48.750;9.078;2022-10-30T08:40:08;25.90;99.90
2300;DHT22;1158;48.750;9.078;2022-10-30T08:42:35;26.80;99.90
2300;DHT22;1158;48.750;9.078;2022-10-30T08:45:03;27.00;99.90
2300;DHT22;1158;48.750;9.078;2022-10-30T08:47:30;28.20;99.90
2300;DHT22;1158;48.750;9.078;2022-10-30T08:49:57;28.00;99.90
2300;DHT22;1158;48.750;9.078;2022-10-30T08:52:23;27.70;99.90
2300;DHT22;1158;48.750;9.078;2022-10-30T08:54:50;28.00;99.90
2300;DHT22;1158;48.750;9.078;2022-10-30T08:57:18;28.30;99.90
2300;DHT22;1158;48.750;9.078;2022-10-30T08:59:45;28.30;99.90
2300;DHT22;1158;48.750;9.078;2022-10-30T09:02:11;28.60;99.90
2300;DHT22;1158;48.750;9.078;2022-10-30T09:04:38;28.90;99.90
2300;DHT22;1158;48.750;9.078;2022-10-30T09:07:05;28.90;99.90
2300;DHT22;1158;48.750;9.078;2022-10-30T09:09:31;28.90;99.90
2300;DHT22;1158;48.750;9.078;2022-10-30T09:11:58;28.80;99.90
2300;DHT22;1158;48.750;9.078;2022-10-30T09:14:26;28.80;99.90
2300;DHT22;1158;48.750;9.078;2022-10-30T09:16:53;28.80;98.80
2300;DHT22;1158;48.750;9.078;2022-10-30T09:19:20;28.00;97.50
2300;DHT22;1158;48.750;9.078;2022-10-30T09:21:47;28.10;98.50
2300;DHT22;1158;48.750;9.078;2022-10-30T09:24:13;27.60;98.00
2300;DHT22;1158;48.750;9.078;2022-10-30T09:26:40;27.70;98.40
2300;DHT22;1158;48.750;9.078;2022-10-30T09:29:07;27.90;98.50
2300;DHT22;1158;48.750;9.078;2022-10-30T09:31:35;27.60;98.10
2300;DHT22;1158;48.750;9.078;2022-10-30T09:34:01;27.60;98.80
2300;DHT22;1158;48.750;9.078;2022-10-30T09:36:28;27.60;98.40
2300;DHT22;1158;48.750;9.078;2022-10-30T09:38:56;27.70;96.90
2300;DHT22;1158;48.750;9.078;2022-10-30T09:41:43;27.70;96.20
2300;DHT22;1158;48.750;9.078;2022-10-30T09:44:22;28.00;95.60
2300;DHT22;1158;48.750;9.078;2022-10-30T09:47:02;28.70;94.10
2300;DHT22;1158;48.750;9.078;2022-10-30T09:49:48;28.90;92.70
2300;DHT22;1158;48.750;9.078;2022-10-30T09:52:28;29.30;92.10
2300;DHT22;1158;48.750;9.078;2022-10-30T09:55:07;29.20;90.20
2300;DHT22;1158;48.750;9.078;2022-10-30T09:57:43;29.70;91.70
2300;DHT22;1158;48.750;9.078;2022-10-30T10:00:14;30.10;91.20
2300;DHT22;1158;48.750;9.078;2022-10-30T10:02:52;30.30;87.50
2300;DHT22;1158;48.750;9.078;2022-10-30T10:05:24;30.30;91.30
2300;DHT22;1158;48.750;9.078;2022-10-30T10:07:56;30.20;90.50
2300;DHT22;1158;48.750;9.078;2022-10-30T10:10:31;30.20;89.50
2300;DHT22;1158;48.750;9.078;2022-10-30T10:13:02;29.90;89.80
2300;DHT22;1158;48.750;9.078;2022-10-30T10:15:36;29.30;84.70
2300;DHT22;1158;48.750;9.078;2022-10-30T10:18:13;29.30;84.70
2300;DHT22;1158;48.750;9.078;2022-10-30T10:20:44;29.10;85.70
2300;DHT22;1158;48.750;9.078;2022-10-30T10:23:16;28.40;86.10
2300;DHT22;1158;48.750;9.078;2022-10-30T10:25:47;28.00;89.20
2300;DHT22;1158;48.750;9.078;2022-10-30T10:28:28;27.80;87.40
2300;DHT22;1158;48.750;9.078;2022-10-30T10:31:05;27.80;88.10
2300;DHT22;1158;48.750;9.078;2022-10-30T10:33:44;27.70;88.30
2300;DHT22;1158;48.750;9.078;2022-10-30T10:36:26;27.70;87.40
2300;DHT22;1158;48.750;9.078;2022-10-30T10:39:06;28.10;87.20
2300;DHT22;1158;48.750;9.078;2022-10-30T10:41:53;28.40;85.80
2300;DHT22;1158;48.750;9.078;2022-10-30T10:44:33;28.90;81.50
2300;DHT22;1158;48.750;9.078;2022-10-30T10:47:12;29.10;79.30
2300;DHT22;1158;48.750;9.078;2022-10-30T10:49:55;29.40;75.00
2300;DHT22;1158;48.750;9.078;2022-10-30T10:52:27;29.30;77.00
2300;DHT22;1158;48.750;9.078;2022-10-30T10:54:59;29.50;76.90
2300;DHT22;1158;48.750;9.078;2022-10-30T10:57:31;29.60;75.60
2300;DHT22;1158;48.750;9.078;2022-10-30T11:00:02;29.80;76.30
2300;DHT22;1158;48.750;9.078;2022-10-30T11:02:34;29.60;74.50
2300;DHT22;1158;48.750;9.078;2022-10-30T11:05:11;29.60;72.20
2300;DHT22;1158;48.750;9.078;2022-10-30T11:07:44;30.30;75.60
2300;DHT22;1158;48.750;9.078;2022-10-30T11:10:13;30.50;73.60
2300;DHT22;1158;48.750;9.078;2022-10-30T11:12:40;30.30;72.20
2300;DHT22;1158;48.750;9.078;2022-10-30T11:15:19;30.10;66.70
2300;DHT22;1158;48.750;9.078;2022-10-30T11:17:54;29.70;68.90
2300;DHT22;1158;48.750;9.078;2022-10-30T11:20:30;29.30;70.10
2300;DHT22;1158;48.750;9.078;2022-10-30T11:23:00;29.20;68.10
2300;DHT22;1158;48.750;9.078;2022-10-30T11:25:33;29.50;69.20
2300;DHT22;1158;48.750;9.078;2022-10-30T11:28:03;29.90;75.60
2300;DHT22;1158;48.750;9.078;2022-10-30T11:30:31;30.10;74.00
2300;DHT22;1158;48.750;9.078;2022-10-30T11:32:58;30.10;75.30
2300;DHT22;1158;48.750;9.078;2022-10-30T11:35:26;30.20;71.20
2300;DHT22;1158;48.750;9.078;2022-10-30T11:38:10;30.00;71.80
2300;DHT22;1158;48.750;9.078;2022-10-30T11:40:38;30.10;72.40
2300;DHT22;1158;48.750;9.078;2022-10-30T11:43:07;30.10;73.50
2300;DHT22;1158;48.750;9.078;2022-10-30T11:45:37;29.80;75.70
2300;DHT22;1158;48.750;9.078;2022-10-30T11:48:17;29.60;74.60
2300;DHT22;1158;48.750;9.078;2022-10-30T11:50:48;29.20;70.10
2300;DHT22;1158;48.750;9.078;2022-10-30T11:53:20;29.00;73.40
2300;DHT22;1158;48.750;9.078;2022-10-30T11:55:47;28.80;72.80
2300;DHT22;1158;48.750;9.078;2022-10-30T11:58:21;28.50;80.10
2300;DHT22;1158;48.750;9.078;2022-10-30T12:00:59;28.30;85.10
2300;DHT22;1158;48.750;9.078;2022-10-30T12:03:28;28.10;88.80
2300;DHT22;1158;48.750;9.078;2022-10-30T12:06:09;27.90;90.60
2300;DHT22;1158;48.750;9.078;2022-10-30T12:08:36;27.70;91.60
2300;DHT22;1158;48.750;9.078;2022-10-30T12:11:04;27.70;92.60
2300;DHT22;1158;48.750;9.078;2022-10-30T12:13:36;27.40;92.90
2300;DHT22;1158;48.750;9.078;2022-10-30T12:16:11;27.20;93.60
2300;DHT22;1158;48.750;9.078;2022-10-30T12:18:40;27.20;94.20
2300;DHT22;1158;48.750;9.078;2022-10-30T12:21:09;27.10;95.00
2300;DHT22;1158;48.750;9.078;2022-10-30T12:23:37;27.10;94.20
2300;DHT22;1158;48.750;9.078;2022-10-30T12:26:09;27.00;94.80
2300;DHT22;1158;48.750;9.078;2022-10-30T12:28:37;27.10;95.10
2300;DHT22;1158;48.750;9.078;2022-10-30T12:31:09;27.30;95.10
2300;DHT22;1158;48.750;9.078;2022-10-30T12:33:40;27.40;95.50
2300;DHT22;1158;48.750;9.078;2022-10-30T12:36:13;27.70;95.40
2300;DHT22;1158;48.750;9.078;2022-10-30T12:38:44;27.80;95.20
2300;DHT22;1158;48.750;9.078;2022-10-30T12:41:16;27.70;95.00
2300;DHT22;1158;48.750;9.078;2022-10-30T12:43:48;27.60;95.70
2300;DHT22;1158;48.750;9.078;2022-10-30T12:46:28;27.70;96.10
2300;DHT22;1158;48.750;9.078;2022-10-30T12:49:02;27.80;95.60
2300;DHT22;1158;48.750;9.078;2022-10-30T12:51:39;27.90;95.60
2300;DHT22;1158;48.750;9.078;2022-10-30T12:54:16;28.10;95.60
2300;DHT22;1158;48.750;9.078;2022-10-30T12:56:49;28.20;95.00
2300;DHT22;1158;48.750;9.078;2022-10-30T12:59:29;28.40;94.40
2300;DHT22;1158;48.750;9.078;2022-10-30T13:02:00;28.50;94.20
2300;DHT22;1158;48.750;9.078;2022-10-30T13:04:33;28.40;94.80
2300;DHT22;1158;48.750;9.078;2022-10-30T13:07:07;28.40;95.10
2300;DHT22;1158;48.750;9.078;2022-10-30T13:09:39;28.60;94.80
2300;DHT22;1158;48.750;9.078;2022-10-30T13:12:11;28.70;94.40
2300;DHT22;1158;48.750;9.078;2022-10-30T13:14:42;28.80;94.50
2300;DHT22;1158;48.750;9.078;2022-10-30T13:17:11;28.90;92.00
2300;DHT22;1158;48.750;9.078;2022-10-30T13:19:40;28.90;92.80
2300;DHT22;1158;48.750;9.078;2022-10-30T13:22:14;29.00;92.80
2300;DHT22;1158;48.750;9.078;2022-10-30T13:24:47;29.00;93.40
2300;DHT22;1158;48.750;9.078;2022-10-30T13:27:19;29.00;93.50
2300;DHT22;1158;48.750;9.078;2022-10-30T13:29:53;29.10;93.80
2300;DHT22;1158;48.750;9.078;2022-10-30T13:32:33;29.20;92.60
2300;DHT22;1158;48.750;9.078;2022-10-30T13:35:12;29.40;92.20
2300;DHT22;1158;48.750;9.078;2022-10-30T13:37:50;29.80;90.90
2300;DHT22;1158;48.750;9.078;2022-10-30T13:40:23;30.20;91.80
2300;DHT22;1158;48.750;9.078;2022-10-30T13:43:00;30.20;80.10
2300;DHT22;1158;48.750;9.078;2022-10-30T13:45:44;30.30;76.80
2300;DHT22;1158;48.750;9.078;2022-10-30T13:48:20;30.20;80.00
2300;DHT22;1158;48.750;9.078;2022-10-30T13:51:21;30.50;75.30
2300;DHT22;1158;48.750;9.078;2022-10-30T13:53:59;30.60;77.30
2300;DHT22;1158;48.750;9.078;2022-10-30T13:56:28;30.80;83.70
2300;DHT22;1158;48.750;9.078;2022-10-30T13:59:04;30.80;86.00
2300;DHT22;1158;48.750;9.078;2022-10-30T14:01:37;30.80;85.60
2300;DHT22;1158;48.750;9.078;2022-10-30T14:04:09;30.90;88.30
2300;DHT22;1158;48.750;9.078;2022-10-30T14:06:46;30.70;86.40
2300;DHT22;1158;48.750;9.078;2022-10-30T14:09:26;30.60;85.50
2300;DHT22;1158;48.750;9.078;2022-10-30T14:12:00;30.30;81.90
2300;DHT22;1158;48.750;9.078;2022-10-30T14:14:47;30.10;81.60
2300;DHT22;1158;48.750;9.078;2022-10-30T14:17:17;29.60;88.00
2300;DHT22;1158;48.750;9.078;2022-10-30T14:20:24;28.50;89.20
2300;DHT22;1158;48.750;9.078;2022-10-30T14:23:11;28.10;92.80
2300;DHT22;1158;48.750;9.078;2022-10-30T14:25:40;27.90;93.60
2300;DHT22;1158;48.750;9.078;2022-10-30T14:28:17;27.80;94.80
2300;DHT22;1158;48.750;9.078;2022-10-30T14:30:45;27.10;95.60
2300;DHT22;1158;48.750;9.078;2022-10-30T14:33:32;26.20;96.10
2300;DHT22;1158;48.750;9.078;2022-10-30T14:36:13;25.50;96.40
2300;DHT22;1158;48.750;9.078;2022-10-30T14:38:40;25.30;97.60
2300;DHT22;1158;48.750;9.078;2022-10-30T14:41:36;25.10;98.60
2300;DHT22;1158;48.750;9.078;2022-10-30T14:47:01;24.10;98.60
2300;DHT22;1158;48.750;9.078;2022-10-30T14:49:44;24.10;98.20
2300;DHT22;1158;48.750;9.078;2022-10-30T14:52:17;23.90;96.60
2300;DHT22;1158;48.750;9.078;2022-10-30T14:54:50;23.50;96.70
2300;DHT22;1158;48.750;9.078;2022-10-30T14:57:43;23.10;97.10
2300;DHT22;1158;48.750;9.078;2022-10-30T15:00:28;22.70;98.20
2300;DHT22;1158;48.750;9.078;2022-10-30T15:02:57;22.60;99.50
2300;DHT22;1158;48.750;9.078;2022-10-30T15:05:46;22.50;99.90
2300;DHT22;1158;48.750;9.078;2022-10-30T15:08:25;22.40;99.90
2300;DHT22;1158;48.750;9.078;2022-10-30T15:11:10;22.10;99.90
2300;DHT22;1158;48.750;9.078;2022-10-30T15:13:46;21.70;99.90
2300;DHT22;1158;48.750;9.078;2022-10-30T15:16:16;21.60;99.90
2300;DHT22;1158;48.750;9.078;2022-10-30T15:18:45;21.30;99.90
2300;DHT22;1158;48.750;9.078;2022-10-30T15:21:17;21.10;99.90
2300;DHT22;1158;48.750;9.078;2022-10-30T15:23:48;20.80;99.90
2300;DHT22;1158;48.750;9.078;2022-10-30T15:26:19;20.60;99.90
2300;DHT22;1158;48.750;9.078;2022-10-30T15:28:49;20.50;99.90
2300;DHT22;1158;48.750;9.078;2022-10-30T15:31:21;20.40;99.90
2300;DHT22;1158;48.750;9.078;2022-10-30T15:33:49;20.40;99.90
2300;DHT22;1158;48.750;9.078;2022-10-30T15:36:17;20.20;99.90
2300;DHT22;1158;48.750;9.078;2022-10-30T15:38:44;20.20;99.90
2300;DHT22;1158;48.750;9.078;2022-10-30T15:41:10;20.20;99.90
2300;DHT22;1158;48.750;9.078;2022-10-30T15:43:39;20.10;99.90
2300;DHT22;1158;48.750;9.078;2022-10-30T15:46:09;19.90;99.90
2300;DHT22;1158;48.750;9.078;2022-10-30T15:48:38;19.80;99.90
2300;DHT22;1158;48.750;9.078;2022-10-30T15:51:11;19.30;99.90
2300;DHT22;1158;48.750;9.078;2022-10-30T15:53:43;19.10;99.90
2300;DHT22;1158;48.750;9.078;2022-10-30T15:56:16;18.90;99.90
2300;DHT22;1158;48.750;9.078;2022-10-30T15:58:48;18.80;99.90
2300;DHT22;1158;48.750;9.078;2022-10-30T16:01:25;18.50;99.90
2300;DHT22;1158;48.750;9.078;2022-10-30T16:03:52;18.30;99.90
2300;DHT22;1158;48.750;9.078;2022-10-30T16:06:23;18.10;99.90
2300;DHT22;1158;48.750;9.078;2022-10-30T16:08:50;17.90;99.90
2300;DHT22;1158;48.750;9.078;2022-10-30T16:11:17;17.70;99.90
2300;DHT22;1158;48.750;9.078;2022-10-30T16:13:45;17.50;99.90
2300;DHT22;1158;48.750;9.078;2022-10-30T16:16:25;17.40;99.90
2300;DHT22;1158;48.750;9.078;2022-10-30T16:18:53;17.30;99.90
2300;DHT22;1158;48.750;9.078;2022-10-30T16:21:24;17.20;99.90
2300;DHT22;1158;48.750;9.078;2022-10-30T16:23:57;17.00;99.90
2300;DHT22;1158;48.750;9.078;2022-10-30T16:26:27;16.70;99.90
2300;DHT22;1158;48.750;9.078;2022-10-30T16:28:59;16.50;99.90